sensor_id;sensor_type;location;lat;lon;timestamp;P1;durP1;ratioP1;P2;durP2;ratioP2
35977;SDS011;22056;0.000;0.000;2022-09-09T00:01:43;3.35;;;0.77;;
35977;SDS011;22056;0.000;0.000;2022-09-09T00:07:36;1.58;;;0.80;;
35977;SDS011;22056;0.000;0.000;2022-09-09T00:10:23;2.05;;;0.70;;
35977;SDS011;22056;0.000;0.000;2022-09-09T00:15:27;0.90;;;0.57;;
35977;SDS011;22056;0.000;0.000;2022-09-09T00:18:31;1.20;;;0.70;;
35977;SDS011;22056;0.000;0.000;2022-09-09T00:20:52;2.60;;;0.88;;
35977;SDS011;22056;0.000;0.000;2022-09-09T00:25:52;0.85;;;0.40;;
35977;SDS011;22056;0.000;0.000;2022-09-09T00:28:22;1.95;;;0.70;;
35977;SDS011;22056;0.000;0.000;2022-09-09T00:30:49;2.00;;;0.70;;
35977;SDS011;22056;0.000;0.000;2022-09-09T00:33:22;1.52;;;0.70;;
35977;SDS011;22056;0.000;0.000;2022-09-09T00:35:51;1.60;;;0.75;;
35977;SDS011;22056;0.000;0.000;2022-09-09T00:38:19;2.63;;;0.70;;
35977;SDS011;22056;0.000;0.000;2022-09-09T00:40:49;1.42;;;0.60;;
35977;SDS011;22056;0.000;0.000;2022-09-09T00:48:12;1.40;;;0.60;;
35977;SDS011;22056;0.000;0.000;2022-09-09T00:50:44;1.63;;;0.60;;
35977;SDS011;22056;0.000;0.000;2022-09-09T00:58:25;1.77;;;0.57;;
35977;SDS011;22056;0.000;0.000;2022-09-09T01:01:11;1.88;;;0.75;;
35977;SDS011;22056;0.000;0.000;2022-09-09T01:08:43;1.02;;;0.60;;
35977;SDS011;22056;0.000;0.000;2022-09-09T01:11:15;3.03;;;0.68;;
35977;SDS011;22056;0.000;0.000;2022-09-09T01:13:43;1.25;;;0.70;;
35977;SDS011;22056;0.000;0.000;2022-09-09T01:16:12;1.13;;;0.47;;
35977;SDS011;22056;0.000;0.000;2022-09-09T01:18:44;2.10;;;0.70;;
35977;SDS011;22056;0.000;0.000;2022-09-09T01:26:22;0.57;;;0.38;;
35977;SDS011;22056;0.000;0.000;2022-09-09T01:28:51;1.38;;;0.43;;
35977;SDS011;22056;0.000;0.000;2022-09-09T01:31:27;0.90;;;0.60;;
35977;SDS011;22056;0.000;0.000;2022-09-09T01:33:54;1.50;;;0.60;;
35977;SDS011;22056;0.000;0.000;2022-09-09T01:38:46;0.90;;;0.50;;
35977;SDS011;22056;0.000;0.000;2022-09-09T01:41:13;0.80;;;0.47;;
35977;SDS011;22056;0.000;0.000;2022-09-09T01:43:39;1.15;;;0.40;;
35977;SDS011;22056;0.000;0.000;2022-09-09T01:46:05;2.50;;;0.50;;
35977;SDS011;22056;0.000;0.000;2022-09-09T01:48:31;2.58;;;0.60;;
35977;SDS011;22056;0.000;0.000;2022-09-09T01:50:57;0.60;;;0.45;;
35977;SDS011;22056;0.000;0.000;2022-09-09T01:53:24;0.60;;;0.38;;
35977;SDS011;22056;0.000;0.000;2022-09-09T01:56:05;0.80;;;0.40;;
35977;SDS011;22056;0.000;0.000;2022-09-09T02:03:47;0.85;;;0.50;;
35977;SDS011;22056;0.000;0.000;2022-09-09T02:06:27;1.27;;;0.50;;
35977;SDS011;22056;0.000;0.000;2022-09-09T02:08:56;0.93;;;0.50;;
35977;SDS011;22056;0.000;0.000;2022-09-09T02:11:23;0.70;;;0.57;;
35977;SDS011;22056;0.000;0.000;2022-09-09T02:13:54;1.27;;;0.50;;
35977;SDS011;22056;0.000;0.000;2022-09-09T02:16:23;1.42;;;0.50;;
35977;SDS011;22056;0.000;0.000;2022-09-09T02:18:51;0.90;;;0.60;;
35977;SDS011;22056;0.000;0.000;2022-09-09T02:21:19;1.00;;;0.50;;
35977;SDS011;22056;0.000;0.000;2022-09-09T02:23:47;1.30;;;0.40;;
35977;SDS011;22056;0.000;0.000;2022-09-09T02:26:17;1.15;;;0.57;;
35977;SDS011;22056;0.000;0.000;2022-09-09T02:28:45;0.98;;;0.57;;
35977;SDS011;22056;0.000;0.000;2022-09-09T02:31:12;1.23;;;0.63;;
35977;SDS011;22056;0.000;0.000;2022-09-09T02:33:42;0.60;;;0.50;;
35977;SDS011;22056;0.000;0.000;2022-09-09T02:36:09;1.05;;;0.50;;
35977;SDS011;22056;0.000;0.000;2022-09-09T02:38:41;0.63;;;0.40;;
35977;SDS011;22056;0.000;0.000;2022-09-09T02:41:09;1.00;;;0.50;;
35977;SDS011;22056;0.000;0.000;2022-09-09T02:43:35;0.73;;;0.40;;
35977;SDS011;22056;0.000;0.000;2022-09-09T02:51:24;0.52;;;0.40;;
35977;SDS011;22056;0.000;0.000;2022-09-09T02:56:29;1.20;;;0.60;;
35977;SDS011;22056;0.000;0.000;2022-09-09T02:58:58;0.73;;;0.50;;
35977;SDS011;22056;0.000;0.000;2022-09-09T03:01:25;1.77;;;0.60;;
35977;SDS011;22056;0.000;0.000;2022-09-09T03:03:51;1.00;;;0.60;;
35977;SDS011;22056;0.000;0.000;2022-09-09T03:06:17;0.85;;;0.50;;
35977;SDS011;22056;0.000;0.000;2022-09-09T03:08:44;0.55;;;0.50;;
35977;SDS011;22056;0.000;0.000;2022-09-09T03:11:10;0.77;;;0.50;;
35977;SDS011;22056;0.000;0.000;2022-09-09T03:13:36;0.73;;;0.40;;
35977;SDS011;22056;0.000;0.000;2022-09-09T03:16:03;1.00;;;0.60;;
35977;SDS011;22056;0.000;0.000;2022-09-09T03:18:29;1.20;;;0.57;;
35977;SDS011;22056;0.000;0.000;2022-09-09T03:20:57;0.55;;;0.40;;
35977;SDS011;22056;0.000;0.000;2022-09-09T03:23:24;1.17;;;0.55;;
35977;SDS011;22056;0.000;0.000;2022-09-09T03:25:50;1.60;;;0.60;;
35977;SDS011;22056;0.000;0.000;2022-09-09T03:28:17;0.68;;;0.50;;
35977;SDS011;22056;0.000;0.000;2022-09-09T03:30:43;0.60;;;0.50;;
35977;SDS011;22056;0.000;0.000;2022-09-09T03:33:10;0.73;;;0.40;;
35977;SDS011;22056;0.000;0.000;2022-09-09T03:35:37;0.82;;;0.50;;
35977;SDS011;22056;0.000;0.000;2022-09-09T03:38:04;0.65;;;0.40;;
35977;SDS011;22056;0.000;0.000;2022-09-09T03:40:31;0.57;;;0.40;;
35977;SDS011;22056;0.000;0.000;2022-09-09T03:42:57;0.73;;;0.50;;
35977;SDS011;22056;0.000;0.000;2022-09-09T03:45:23;1.40;;;0.40;;
35977;SDS011;22056;0.000;0.000;2022-09-09T03:47:49;0.88;;;0.40;;
35977;SDS011;22056;0.000;0.000;2022-09-09T03:50:15;0.60;;;0.40;;
35977;SDS011;22056;0.000;0.000;2022-09-09T03:52:43;0.50;;;0.40;;
35977;SDS011;22056;0.000;0.000;2022-09-09T03:55:09;0.52;;;0.40;;
35977;SDS011;22056;0.000;0.000;2022-09-09T03:57:35;1.33;;;0.50;;
35977;SDS011;22056;0.000;0.000;2022-09-09T04:00:03;0.50;;;0.50;;
35977;SDS011;22056;0.000;0.000;2022-09-09T04:02:30;1.60;;;0.50;;
35977;SDS011;22056;0.000;0.000;2022-09-09T04:04:56;1.75;;;0.45;;
35977;SDS011;22056;0.000;0.000;2022-09-09T04:07:22;1.40;;;0.50;;
35977;SDS011;22056;0.000;0.000;2022-09-09T04:09:48;1.10;;;0.40;;
35977;SDS011;22056;0.000;0.000;2022-09-09T04:12:15;1.20;;;0.50;;
35977;SDS011;22056;0.000;0.000;2022-09-09T04:14:41;0.88;;;0.50;;
35977;SDS011;22056;0.000;0.000;2022-09-09T04:17:08;4.63;;;0.77;;
35977;SDS011;22056;0.000;0.000;2022-09-09T04:19:34;1.58;;;0.60;;
35977;SDS011;22056;0.000;0.000;2022-09-09T04:22:00;4.35;;;0.57;;
35977;SDS011;22056;0.000;0.000;2022-09-09T04:24:26;1.45;;;0.55;;
35977;SDS011;22056;0.000;0.000;2022-09-09T04:26:54;0.82;;;0.60;;
35977;SDS011;22056;0.000;0.000;2022-09-09T04:29:20;1.52;;;0.60;;
35977;SDS011;22056;0.000;0.000;2022-09-09T04:31:46;1.98;;;0.57;;
35977;SDS011;22056;0.000;0.000;2022-09-09T04:34:13;2.28;;;0.57;;
35977;SDS011;22056;0.000;0.000;2022-09-09T04:36:39;2.85;;;0.60;;
35977;SDS011;22056;0.000;0.000;2022-09-09T04:39:05;1.77;;;0.85;;
35977;SDS011;22056;0.000;0.000;2022-09-09T04:41:32;2.92;;;0.65;;
35977;SDS011;22056;0.000;0.000;2022-09-09T04:43:59;3.80;;;0.80;;
35977;SDS011;22056;0.000;0.000;2022-09-09T04:46:26;2.42;;;0.70;;
35977;SDS011;22056;0.000;0.000;2022-09-09T04:48:52;2.80;;;0.80;;
35977;SDS011;22056;0.000;0.000;2022-09-09T04:51:19;2.00;;;0.80;;
35977;SDS011;22056;0.000;0.000;2022-09-09T04:53:46;1.92;;;0.50;;
35977;SDS011;22056;0.000;0.000;2022-09-09T04:56:15;1.73;;;0.50;;
35977;SDS011;22056;0.000;0.000;2022-09-09T04:58:41;1.15;;;0.60;;
35977;SDS011;22056;0.000;0.000;2022-09-09T05:01:12;2.47;;;0.63;;
35977;SDS011;22056;0.000;0.000;2022-09-09T05:03:39;2.13;;;0.70;;
35977;SDS011;22056;0.000;0.000;2022-09-09T05:06:09;3.25;;;0.70;;
35977;SDS011;22056;0.000;0.000;2022-09-09T05:08:39;1.52;;;0.50;;
35977;SDS011;22056;0.000;0.000;2022-09-09T05:13:41;2.42;;;0.65;;
35977;SDS011;22056;0.000;0.000;2022-09-09T05:16:07;2.38;;;0.70;;
35977;SDS011;22056;0.000;0.000;2022-09-09T05:18:36;3.30;;;0.68;;
35977;SDS011;22056;0.000;0.000;2022-09-09T05:21:03;2.83;;;0.77;;
35977;SDS011;22056;0.000;0.000;2022-09-09T05:23:29;1.40;;;0.60;;
35977;SDS011;22056;0.000;0.000;2022-09-09T05:25:59;3.72;;;0.95;;
35977;SDS011;22056;0.000;0.000;2022-09-09T05:28:26;2.60;;;0.45;;
35977;SDS011;22056;0.000;0.000;2022-09-09T05:31:00;2.10;;;0.50;;
35977;SDS011;22056;0.000;0.000;2022-09-09T05:33:29;2.15;;;0.52;;
35977;SDS011;22056;0.000;0.000;2022-09-09T05:35:56;3.10;;;0.73;;
35977;SDS011;22056;0.000;0.000;2022-09-09T05:38:22;1.75;;;0.55;;
35977;SDS011;22056;0.000;0.000;2022-09-09T05:40:50;1.65;;;0.70;;
35977;SDS011;22056;0.000;0.000;2022-09-09T05:43:18;2.17;;;0.63;;
35977;SDS011;22056;0.000;0.000;2022-09-09T05:45:45;1.10;;;0.60;;
35977;SDS011;22056;0.000;0.000;2022-09-09T05:48:13;5.38;;;1.00;;
35977;SDS011;22056;0.000;0.000;2022-09-09T05:50:40;3.10;;;0.70;;
35977;SDS011;22056;0.000;0.000;2022-09-09T05:53:08;3.03;;;0.85;;
35977;SDS011;22056;0.000;0.000;2022-09-09T05:55:36;2.67;;;0.68;;
35977;SDS011;22056;0.000;0.000;2022-09-09T05:58:03;4.95;;;0.88;;
35977;SDS011;22056;0.000;0.000;2022-09-09T06:00:29;2.83;;;0.70;;
35977;SDS011;22056;0.000;0.000;2022-09-09T06:02:57;3.63;;;0.70;;
35977;SDS011;22056;0.000;0.000;2022-09-09T06:05:23;3.03;;;0.82;;
35977;SDS011;22056;0.000;0.000;2022-09-09T06:07:52;2.60;;;0.70;;
35977;SDS011;22056;0.000;0.000;2022-09-09T06:10:19;3.35;;;0.80;;
35977;SDS011;22056;0.000;0.000;2022-09-09T06:12:45;9.75;;;1.20;;
35977;SDS011;22056;0.000;0.000;2022-09-09T06:15:11;2.45;;;0.68;;
35977;SDS011;22056;0.000;0.000;2022-09-09T06:17:37;1.25;;;0.63;;
35977;SDS011;22056;0.000;0.000;2022-09-09T06:20:04;7.72;;;0.85;;
35977;SDS011;22056;0.000;0.000;2022-09-09T06:22:30;3.63;;;1.00;;
35977;SDS011;22056;0.000;0.000;2022-09-09T06:24:57;2.67;;;0.98;;
35977;SDS011;22056;0.000;0.000;2022-09-09T06:27:23;5.68;;;1.00;;
35977;SDS011;22056;0.000;0.000;2022-09-09T06:29:49;2.85;;;0.90;;
35977;SDS011;22056;0.000;0.000;2022-09-09T06:32:15;4.43;;;0.90;;
35977;SDS011;22056;0.000;0.000;2022-09-09T06:34:42;4.05;;;0.98;;
35977;SDS011;22056;0.000;0.000;2022-09-09T06:37:09;5.65;;;1.08;;
35977;SDS011;22056;0.000;0.000;2022-09-09T06:39:35;3.60;;;1.02;;
35977;SDS011;22056;0.000;0.000;2022-09-09T06:42:01;2.45;;;0.50;;
35977;SDS011;22056;0.000;0.000;2022-09-09T06:44:27;5.63;;;0.95;;
35977;SDS011;22056;0.000;0.000;2022-09-09T06:46:58;2.88;;;0.70;;
35977;SDS011;22056;0.000;0.000;2022-09-09T06:49:24;4.50;;;0.80;;
35977;SDS011;22056;0.000;0.000;2022-09-09T06:51:50;4.78;;;0.80;;
35977;SDS011;22056;0.000;0.000;2022-09-09T06:54:17;2.83;;;0.80;;
35977;SDS011;22056;0.000;0.000;2022-09-09T06:56:44;2.83;;;1.00;;
35977;SDS011;22056;0.000;0.000;2022-09-09T06:59:11;4.10;;;0.88;;
35977;SDS011;22056;0.000;0.000;2022-09-09T07:01:41;0.98;;;0.60;;
35977;SDS011;22056;0.000;0.000;2022-09-09T07:04:12;3.70;;;0.70;;
35977;SDS011;22056;0.000;0.000;2022-09-09T07:06:39;4.20;;;0.93;;
35977;SDS011;22056;0.000;0.000;2022-09-09T07:09:07;2.08;;;0.65;;
35977;SDS011;22056;0.000;0.000;2022-09-09T07:11:43;4.15;;;0.80;;
35977;SDS011;22056;0.000;0.000;2022-09-09T07:14:09;3.03;;;1.00;;
35977;SDS011;22056;0.000;0.000;2022-09-09T07:16:39;5.60;;;1.15;;
35977;SDS011;22056;0.000;0.000;2022-09-09T07:19:05;4.93;;;1.00;;
35977;SDS011;22056;0.000;0.000;2022-09-09T07:21:32;3.15;;;0.85;;
35977;SDS011;22056;0.000;0.000;2022-09-09T07:23:58;3.30;;;0.75;;
35977;SDS011;22056;0.000;0.000;2022-09-09T07:26:26;3.85;;;1.00;;
35977;SDS011;22056;0.000;0.000;2022-09-09T07:28:53;3.35;;;0.75;;
35977;SDS011;22056;0.000;0.000;2022-09-09T07:31:22;4.05;;;1.00;;
35977;SDS011;22056;0.000;0.000;2022-09-09T07:33:49;4.45;;;1.00;;
35977;SDS011;22056;0.000;0.000;2022-09-09T07:36:17;2.22;;;0.90;;
35977;SDS011;22056;0.000;0.000;2022-09-09T07:38:47;6.63;;;0.80;;
35977;SDS011;22056;0.000;0.000;2022-09-09T07:41:35;5.45;;;0.90;;
35977;SDS011;22056;0.000;0.000;2022-09-09T07:44:05;4.05;;;0.80;;
35977;SDS011;22056;0.000;0.000;2022-09-09T07:46:31;1.67;;;0.60;;
35977;SDS011;22056;0.000;0.000;2022-09-09T07:48:59;6.40;;;1.10;;
35977;SDS011;22056;0.000;0.000;2022-09-09T07:51:27;5.40;;;1.40;;
35977;SDS011;22056;0.000;0.000;2022-09-09T07:53:55;4.18;;;1.15;;
35977;SDS011;22056;0.000;0.000;2022-09-09T07:56:22;4.43;;;1.00;;
35977;SDS011;22056;0.000;0.000;2022-09-09T07:58:49;3.63;;;0.90;;
35977;SDS011;22056;0.000;0.000;2022-09-09T08:01:19;2.28;;;0.90;;
35977;SDS011;22056;0.000;0.000;2022-09-09T08:03:46;3.72;;;1.13;;
35977;SDS011;22056;0.000;0.000;2022-09-09T08:06:13;2.97;;;0.85;;
35977;SDS011;22056;0.000;0.000;2022-09-09T08:08:40;4.32;;;0.98;;
35977;SDS011;22056;0.000;0.000;2022-09-09T08:11:09;2.05;;;0.80;;
35977;SDS011;22056;0.000;0.000;2022-09-09T08:13:36;2.13;;;1.00;;
35977;SDS011;22056;0.000;0.000;2022-09-09T08:16:04;3.58;;;0.93;;
35977;SDS011;22056;0.000;0.000;2022-09-09T08:18:30;2.55;;;0.70;;
35977;SDS011;22056;0.000;0.000;2022-09-09T08:20:57;3.45;;;1.15;;
35977;SDS011;22056;0.000;0.000;2022-09-09T08:23:23;8.18;;;1.23;;
35977;SDS011;22056;0.000;0.000;2022-09-09T08:25:50;4.43;;;1.08;;
35977;SDS011;22056;0.000;0.000;2022-09-09T08:28:17;6.10;;;0.98;;
35977;SDS011;22056;0.000;0.000;2022-09-09T08:30:43;8.85;;;1.50;;
35977;SDS011;22056;0.000;0.000;2022-09-09T08:33:09;7.22;;;1.23;;
35977;SDS011;22056;0.000;0.000;2022-09-09T08:35:36;3.60;;;0.98;;
35977;SDS011;22056;0.000;0.000;2022-09-09T08:38:02;3.45;;;0.98;;
35977;SDS011;22056;0.000;0.000;2022-09-09T08:40:29;5.13;;;1.02;;
35977;SDS011;22056;0.000;0.000;2022-09-09T08:42:59;3.45;;;0.90;;
35977;SDS011;22056;0.000;0.000;2022-09-09T08:45:29;4.82;;;1.20;;
35977;SDS011;22056;0.000;0.000;2022-09-09T08:48:03;10.07;;;1.10;;
35977;SDS011;22056;0.000;0.000;2022-09-09T08:50:35;4.82;;;1.05;;
35977;SDS011;22056;0.000;0.000;2022-09-09T08:55:47;8.05;;;1.40;;
35977;SDS011;22056;0.000;0.000;2022-09-09T08:58:16;5.28;;;1.30;;
35977;SDS011;22056;0.000;0.000;2022-09-09T09:03:32;6.05;;;1.05;;
35977;SDS011;22056;0.000;0.000;2022-09-09T09:06:04;3.42;;;0.70;;
35977;SDS011;22056;0.000;0.000;2022-09-09T09:08:48;3.40;;;1.13;;
35977;SDS011;22056;0.000;0.000;2022-09-09T09:11:18;4.50;;;1.20;;
35977;SDS011;22056;0.000;0.000;2022-09-09T09:14:18;2.83;;;0.85;;
35977;SDS011;22056;0.000;0.000;2022-09-09T09:19:11;4.90;;;1.50;;
35977;SDS011;22056;0.000;0.000;2022-09-09T09:21:41;6.00;;;1.27;;
35977;SDS011;22056;0.000;0.000;2022-09-09T09:24:16;6.30;;;1.30;;
35977;SDS011;22056;0.000;0.000;2022-09-09T09:26:44;4.82;;;1.40;;
35977;SDS011;22056;0.000;0.000;2022-09-09T09:29:17;2.47;;;0.70;;
35977;SDS011;22056;0.000;0.000;2022-09-09T09:31:52;6.28;;;1.15;;
35977;SDS011;22056;0.000;0.000;2022-09-09T09:34:21;7.05;;;1.10;;
35977;SDS011;22056;0.000;0.000;2022-09-09T09:36:53;5.03;;;1.33;;
35977;SDS011;22056;0.000;0.000;2022-09-09T09:39:30;5.47;;;1.23;;
35977;SDS011;22056;0.000;0.000;2022-09-09T09:42:10;5.13;;;1.33;;
35977;SDS011;22056;0.000;0.000;2022-09-09T09:44:39;6.57;;;1.58;;
35977;SDS011;22056;0.000;0.000;2022-09-09T09:47:10;6.70;;;1.17;;
35977;SDS011;22056;0.000;0.000;2022-09-09T09:49:38;5.00;;;0.90;;
35977;SDS011;22056;0.000;0.000;2022-09-09T09:52:05;5.07;;;1.20;;
35977;SDS011;22056;0.000;0.000;2022-09-09T09:54:38;9.75;;;1.50;;
35977;SDS011;22056;0.000;0.000;2022-09-09T09:59:34;7.35;;;1.40;;
35977;SDS011;22056;0.000;0.000;2022-09-09T10:02:13;4.75;;;1.10;;
35977;SDS011;22056;0.000;0.000;2022-09-09T10:04:40;4.82;;;1.33;;
35977;SDS011;22056;0.000;0.000;2022-09-09T10:07:10;9.13;;;1.58;;
35977;SDS011;22056;0.000;0.000;2022-09-09T10:09:36;9.50;;;1.55;;
35977;SDS011;22056;0.000;0.000;2022-09-09T10:14:41;5.03;;;1.40;;
35977;SDS011;22056;0.000;0.000;2022-09-09T10:17:13;5.53;;;1.27;;
35977;SDS011;22056;0.000;0.000;2022-09-09T10:22:18;7.15;;;1.15;;
35977;SDS011;22056;0.000;0.000;2022-09-09T10:35:09;6.47;;;1.58;;
35977;SDS011;22056;0.000;0.000;2022-09-09T10:37:40;7.05;;;1.33;;
35977;SDS011;22056;0.000;0.000;2022-09-09T10:42:43;7.22;;;1.75;;
35977;SDS011;22056;0.000;0.000;2022-09-09T10:45:15;6.18;;;1.95;;
35977;SDS011;22056;0.000;0.000;2022-09-09T10:52:45;7.70;;;1.60;;
35977;SDS011;22056;0.000;0.000;2022-09-09T10:55:15;5.68;;;1.40;;
35977;SDS011;22056;0.000;0.000;2022-09-09T10:57:47;4.60;;;1.63;;
35977;SDS011;22056;0.000;0.000;2022-09-09T11:03:02;7.57;;;1.70;;
35977;SDS011;22056;0.000;0.000;2022-09-09T11:05:36;10.30;;;2.00;;
35977;SDS011;22056;0.000;0.000;2022-09-09T11:08:24;9.02;;;2.15;;
35977;SDS011;22056;0.000;0.000;2022-09-09T11:16:01;5.70;;;1.45;;
35977;SDS011;22056;0.000;0.000;2022-09-09T11:18:29;10.77;;;1.50;;
35977;SDS011;22056;0.000;0.000;2022-09-09T11:20:57;8.68;;;1.48;;
35977;SDS011;22056;0.000;0.000;2022-09-09T11:23:27;7.22;;;1.92;;
35977;SDS011;22056;0.000;0.000;2022-09-09T11:25:58;15.75;;;2.42;;
35977;SDS011;22056;0.000;0.000;2022-09-09T11:28:52;13.45;;;1.90;;
35977;SDS011;22056;0.000;0.000;2022-09-09T11:41:44;10.48;;;1.60;;
35977;SDS011;22056;0.000;0.000;2022-09-09T11:44:11;5.18;;;1.40;;
35977;SDS011;22056;0.000;0.000;2022-09-09T11:46:38;10.15;;;1.80;;
35977;SDS011;22056;0.000;0.000;2022-09-09T11:49:06;8.93;;;1.48;;
35977;SDS011;22056;0.000;0.000;2022-09-09T11:51:49;4.18;;;1.40;;
35977;SDS011;22056;0.000;0.000;2022-09-09T11:54:32;7.15;;;1.70;;
35977;SDS011;22056;0.000;0.000;2022-09-09T11:56:58;4.35;;;1.10;;
35977;SDS011;22056;0.000;0.000;2022-09-09T11:59:26;6.55;;;1.40;;
35977;SDS011;22056;0.000;0.000;2022-09-09T12:01:55;5.78;;;1.50;;
35977;SDS011;22056;0.000;0.000;2022-09-09T12:06:53;6.28;;;1.70;;
35977;SDS011;22056;0.000;0.000;2022-09-09T12:09:22;11.65;;;1.58;;
35977;SDS011;22056;0.000;0.000;2022-09-09T12:11:48;7.20;;;1.42;;
35977;SDS011;22056;0.000;0.000;2022-09-09T12:14:23;5.18;;;1.30;;
35977;SDS011;22056;0.000;0.000;2022-09-09T12:20:11;6.25;;;1.10;;
35977;SDS011;22056;0.000;0.000;2022-09-09T12:27:59;4.35;;;1.10;;
35977;SDS011;22056;0.000;0.000;2022-09-09T12:33:12;12.38;;;1.60;;
35977;SDS011;22056;0.000;0.000;2022-09-09T12:35:40;11.07;;;1.42;;
35977;SDS011;22056;0.000;0.000;2022-09-09T12:38:09;11.77;;;1.92;;
35977;SDS011;22056;0.000;0.000;2022-09-09T12:40:38;8.55;;;1.50;;
35977;SDS011;22056;0.000;0.000;2022-09-09T12:43:17;8.35;;;1.50;;
35977;SDS011;22056;0.000;0.000;2022-09-09T12:45:44;12.50;;;1.90;;
35977;SDS011;22056;0.000;0.000;2022-09-09T12:48:11;15.05;;;2.45;;
35977;SDS011;22056;0.000;0.000;2022-09-09T12:50:50;9.73;;;2.30;;
35977;SDS011;22056;0.000;0.000;2022-09-09T12:55:59;27.08;;;3.67;;
35977;SDS011;22056;0.000;0.000;2022-09-09T12:58:26;32.97;;;4.80;;
35977;SDS011;22056;0.000;0.000;2022-09-09T13:00:58;16.55;;;3.13;;
35977;SDS011;22056;0.000;0.000;2022-09-09T13:03:25;23.38;;;3.17;;
35977;SDS011;22056;0.000;0.000;2022-09-09T13:05:52;17.92;;;2.45;;
35977;SDS011;22056;0.000;0.000;2022-09-09T13:08:19;18.13;;;2.65;;
35977;SDS011;22056;0.000;0.000;2022-09-09T13:10:53;18.00;;;3.05;;
35977;SDS011;22056;0.000;0.000;2022-09-09T13:13:23;17.42;;;2.47;;
35977;SDS011;22056;0.000;0.000;2022-09-09T13:15:51;24.08;;;2.47;;
35977;SDS011;22056;0.000;0.000;2022-09-09T13:18:19;14.60;;;2.92;;
35977;SDS011;22056;0.000;0.000;2022-09-09T13:20:48;14.68;;;2.38;;
35977;SDS011;22056;0.000;0.000;2022-09-09T13:23:15;14.45;;;2.72;;
35977;SDS011;22056;0.000;0.000;2022-09-09T13:25:51;13.65;;;1.88;;
35977;SDS011;22056;0.000;0.000;2022-09-09T13:28:22;12.65;;;2.33;;
35977;SDS011;22056;0.000;0.000;2022-09-09T13:30:56;16.85;;;2.17;;
35977;SDS011;22056;0.000;0.000;2022-09-09T13:33:33;12.10;;;2.20;;
35977;SDS011;22056;0.000;0.000;2022-09-09T13:36:00;12.98;;;1.90;;
35977;SDS011;22056;0.000;0.000;2022-09-09T13:38:29;12.77;;;2.38;;
35977;SDS011;22056;0.000;0.000;2022-09-09T13:43:31;15.30;;;2.60;;
35977;SDS011;22056;0.000;0.000;2022-09-09T13:46:02;9.80;;;1.90;;
35977;SDS011;22056;0.000;0.000;2022-09-09T13:48:28;14.05;;;1.80;;
35977;SDS011;22056;0.000;0.000;2022-09-09T13:51:00;10.75;;;2.53;;
35977;SDS011;22056;0.000;0.000;2022-09-09T13:53:26;16.73;;;2.60;;
35977;SDS011;22056;0.000;0.000;2022-09-09T13:55:53;12.45;;;2.28;;
35977;SDS011;22056;0.000;0.000;2022-09-09T13:58:21;13.80;;;2.22;;
35977;SDS011;22056;0.000;0.000;2022-09-09T14:00:50;12.23;;;2.38;;
35977;SDS011;22056;0.000;0.000;2022-09-09T14:03:16;14.02;;;2.40;;
35977;SDS011;22056;0.000;0.000;2022-09-09T14:05:43;26.77;;;2.83;;
35977;SDS011;22056;0.000;0.000;2022-09-09T14:08:14;14.32;;;2.40;;
35977;SDS011;22056;0.000;0.000;2022-09-09T14:10:41;16.92;;;2.63;;
35977;SDS011;22056;0.000;0.000;2022-09-09T14:13:07;14.88;;;2.20;;
35977;SDS011;22056;0.000;0.000;2022-09-09T14:15:33;18.40;;;2.58;;
35977;SDS011;22056;0.000;0.000;2022-09-09T14:18:02;15.98;;;2.35;;
35977;SDS011;22056;0.000;0.000;2022-09-09T14:20:28;9.63;;;1.90;;
35977;SDS011;22056;0.000;0.000;2022-09-09T14:22:55;19.80;;;2.35;;
35977;SDS011;22056;0.000;0.000;2022-09-09T14:25:23;8.63;;;1.88;;
35977;SDS011;22056;0.000;0.000;2022-09-09T14:27:49;12.90;;;2.03;;
35977;SDS011;22056;0.000;0.000;2022-09-09T14:30:16;10.85;;;2.03;;
35977;SDS011;22056;0.000;0.000;2022-09-09T14:32:42;12.48;;;1.95;;
35977;SDS011;22056;0.000;0.000;2022-09-09T14:35:09;9.70;;;1.73;;
35977;SDS011;22056;0.000;0.000;2022-09-09T14:37:36;13.45;;;2.03;;
35977;SDS011;22056;0.000;0.000;2022-09-09T14:40:04;8.43;;;1.48;;
35977;SDS011;22056;0.000;0.000;2022-09-09T14:42:33;11.25;;;2.15;;
35977;SDS011;22056;0.000;0.000;2022-09-09T14:44:59;10.98;;;1.92;;
35977;SDS011;22056;0.000;0.000;2022-09-09T14:47:26;15.43;;;1.60;;
35977;SDS011;22056;0.000;0.000;2022-09-09T14:49:52;9.73;;;1.90;;
35977;SDS011;22056;0.000;0.000;2022-09-09T14:52:19;20.08;;;2.47;;
35977;SDS011;22056;0.000;0.000;2022-09-09T14:54:45;15.27;;;2.15;;
35977;SDS011;22056;0.000;0.000;2022-09-09T14:57:12;16.45;;;2.20;;
35977;SDS011;22056;0.000;0.000;2022-09-09T14:59:38;12.70;;;2.25;;
35977;SDS011;22056;0.000;0.000;2022-09-09T15:02:05;14.80;;;2.35;;
35977;SDS011;22056;0.000;0.000;2022-09-09T15:04:31;14.02;;;2.50;;
35977;SDS011;22056;0.000;0.000;2022-09-09T15:06:58;13.07;;;1.70;;
35977;SDS011;22056;0.000;0.000;2022-09-09T15:09:24;13.85;;;2.35;;
35977;SDS011;22056;0.000;0.000;2022-09-09T15:11:51;13.43;;;2.33;;
35977;SDS011;22056;0.000;0.000;2022-09-09T15:14:17;15.18;;;2.80;;
35977;SDS011;22056;0.000;0.000;2022-09-09T15:16:44;9.55;;;1.90;;
35977;SDS011;22056;0.000;0.000;2022-09-09T15:19:10;11.07;;;2.00;;
35977;SDS011;22056;0.000;0.000;2022-09-09T15:21:37;13.07;;;2.05;;
35977;SDS011;22056;0.000;0.000;2022-09-09T15:24:03;12.77;;;2.10;;
35977;SDS011;22056;0.000;0.000;2022-09-09T15:26:30;12.13;;;2.15;;
35977;SDS011;22056;0.000;0.000;2022-09-09T15:28:56;14.52;;;2.08;;
35977;SDS011;22056;0.000;0.000;2022-09-09T15:31:25;13.50;;;2.17;;
35977;SDS011;22056;0.000;0.000;2022-09-09T15:33:56;13.32;;;2.20;;
35977;SDS011;22056;0.000;0.000;2022-09-09T15:36:26;10.90;;;1.85;;
35977;SDS011;22056;0.000;0.000;2022-09-09T15:38:53;9.57;;;2.10;;
35977;SDS011;22056;0.000;0.000;2022-09-09T15:41:20;13.15;;;1.65;;
35977;SDS011;22056;0.000;0.000;2022-09-09T15:43:47;10.20;;;1.92;;
35977;SDS011;22056;0.000;0.000;2022-09-09T15:48:41;7.40;;;1.45;;
35977;SDS011;22056;0.000;0.000;2022-09-09T15:51:08;8.45;;;1.55;;
35977;SDS011;22056;0.000;0.000;2022-09-09T15:53:34;7.85;;;1.58;;
35977;SDS011;22056;0.000;0.000;2022-09-09T15:56:02;7.55;;;1.65;;
35977;SDS011;22056;0.000;0.000;2022-09-09T15:58:32;9.82;;;1.63;;
35977;SDS011;22056;0.000;0.000;2022-09-09T16:01:04;10.07;;;1.80;;
35977;SDS011;22056;0.000;0.000;2022-09-09T16:03:39;12.52;;;2.13;;
35977;SDS011;22056;0.000;0.000;2022-09-09T16:06:12;14.77;;;2.50;;
35977;SDS011;22056;0.000;0.000;2022-09-09T16:08:40;10.73;;;2.15;;
35977;SDS011;22056;0.000;0.000;2022-09-09T16:11:07;11.50;;;2.00;;
35977;SDS011;22056;0.000;0.000;2022-09-09T16:13:37;15.57;;;2.20;;
35977;SDS011;22056;0.000;0.000;2022-09-09T16:16:05;10.00;;;1.85;;
35977;SDS011;22056;0.000;0.000;2022-09-09T16:18:35;10.02;;;1.77;;
35977;SDS011;22056;0.000;0.000;2022-09-09T16:21:03;8.93;;;1.30;;
35977;SDS011;22056;0.000;0.000;2022-09-09T16:23:30;7.35;;;1.52;;
35977;SDS011;22056;0.000;0.000;2022-09-09T16:25:57;6.10;;;1.73;;
35977;SDS011;22056;0.000;0.000;2022-09-09T16:28:23;7.60;;;1.88;;
35977;SDS011;22056;0.000;0.000;2022-09-09T16:30:49;6.78;;;1.52;;
35977;SDS011;22056;0.000;0.000;2022-09-09T16:33:16;11.07;;;1.95;;
35977;SDS011;22056;0.000;0.000;2022-09-09T16:35:43;12.40;;;2.03;;
35977;SDS011;22056;0.000;0.000;2022-09-09T16:38:10;12.32;;;1.52;;
35977;SDS011;22056;0.000;0.000;2022-09-09T16:40:36;7.68;;;1.60;;
35977;SDS011;22056;0.000;0.000;2022-09-09T16:43:06;11.07;;;2.10;;
35977;SDS011;22056;0.000;0.000;2022-09-09T16:45:32;8.40;;;1.50;;
35977;SDS011;22056;0.000;0.000;2022-09-09T16:47:59;7.25;;;1.58;;
35977;SDS011;22056;0.000;0.000;2022-09-09T16:50:25;8.52;;;1.40;;
35977;SDS011;22056;0.000;0.000;2022-09-09T16:52:52;10.57;;;1.77;;
35977;SDS011;22056;0.000;0.000;2022-09-09T16:55:18;8.77;;;1.60;;
35977;SDS011;22056;0.000;0.000;2022-09-09T16:57:48;9.73;;;1.52;;
35977;SDS011;22056;0.000;0.000;2022-09-09T17:00:15;7.47;;;1.27;;
35977;SDS011;22056;0.000;0.000;2022-09-09T17:02:42;11.40;;;1.38;;
35977;SDS011;22056;0.000;0.000;2022-09-09T17:05:10;8.77;;;1.70;;
35977;SDS011;22056;0.000;0.000;2022-09-09T17:07:37;6.82;;;1.50;;